Time;durP1;ratioP1;P1;durP2;ratioP2;P2;SDS_P1;SDS_P2;PMS_P1;PMS_P2;Temp;Humidity;BMP_temperature;BMP_pressure;BME280_temperature;BME280_humidity;BME280_pressure;Samples;Min_cycle;Max_cycle;Signal;HPM_P1;HPM_P2
2022/06/19 00:00:54;;;;;;;8.10;7.30;;;;;;;19.48;79.26;99865.34;5072408;28;20192;-66
2022/06/19 00:03:35;;;;;;;7.93;6.97;;;;;;;19.39;79.68;99866.31;5071185;28;20681;-66
2022/06/19 00:06:04;;;;;;;7.10;6.50;;;;;;;19.39;79.92;99863.72;5072164;28;20195;-66
2022/06/19 00:08:31;;;;;;;8.53;7.70;;;;;;;19.37;79.77;99875.88;5071847;28;20215;-66
2022/06/19 00:10:58;;;;;;;8.67;7.70;;;;;;;19.30;80.05;99870.78;5072197;28;20199;-65
2022/06/19 00:13:25;;;;;;;8.43;7.63;;;;;;;19.24;80.40;99869.09;5072039;28;20574;-65
2022/06/19 00:15:52;;;;;;;7.97;7.17;;;;;;;19.11;80.79;99864.94;5072191;28;20187;-65
2022/06/19 00:18:19;;;;;;;8.03;7.33;;;;;;;19.14;81.12;99866.66;5071897;28;20191;-65
2022/06/19 00:20:46;;;;;;;10.57;7.60;;;;;;;19.04;81.52;99863.28;5071893;28;20654;-66
2022/06/19 00:23:14;;;;;;;8.40;7.60;;;;;;;19.10;81.90;99865.81;5070585;28;20446;-66
2022/06/19 00:25:41;;;;;;;9.00;7.70;;;;;;;19.11;81.58;99866.69;5071814;28;20194;-66
2022/06/19 00:28:08;;;;;;;8.40;7.50;;;;;;;19.04;81.94;99862.41;5071777;28;20716;-66
2022/06/19 00:30:35;;;;;;;12.00;7.80;;;;;;;18.99;82.70;99865.06;5071825;28;20202;-66
2022/06/19 00:33:02;;;;;;;8.77;7.70;;;;;;;18.83;82.89;99845.31;5071719;28;20658;-66
2022/06/19 00:35:29;;;;;;;8.60;7.43;;;;;;;18.89;83.32;99866.06;5071505;28;20194;-66
2022/06/19 00:37:57;;;;;;;8.27;7.47;;;;;;;18.94;83.00;99858.19;5071642;28;20206;-65
2022/06/19 00:40:28;;;;;;;9.47;7.67;;;;;;;18.84;83.52;99857.47;5071414;28;20188;-65
2022/06/19 00:42:55;;;;;;;9.23;7.80;;;;;;;18.83;84.17;99854.00;5071501;28;20199;-65
2022/06/19 00:45:35;;;;;;;9.38;8.48;;;;;;;18.91;84.24;99853.88;5070290;28;20445;-67
2022/06/19 00:48:03;;;;;;;8.70;7.80;;;;;;;18.89;83.78;99845.25;5071194;28;20195;-65
2022/06/19 00:50:32;;;;;;;11.47;8.57;;;;;;;18.71;83.97;99817.66;5071515;28;20198;-66
2022/06/19 00:53:00;;;;;;;8.97;7.27;;;;;;;18.90;84.14;99849.56;5071306;28;20200;-65
2022/06/19 00:55:31;;;;;;;9.87;8.00;;;;;;;18.85;84.38;99852.22;5071232;28;20294;-66
2022/06/19 00:58:03;;;;;;;10.93;7.93;;;;;;;18.80;84.84;99855.75;5071193;28;20192;-66
2022/06/19 01:00:32;;;;;;;9.30;8.23;;;;;;;18.80;85.01;99855.75;5071087;28;20746;-65
2022/06/19 01:03:02;;;;;;;9.07;8.13;;;;;;;18.69;84.91;99848.06;5070925;28;20191;-66
2022/06/19 01:05:30;;;;;;;10.13;8.43;;;;;;;18.68;85.18;99848.06;5071076;28;20676;-66
2022/06/19 01:08:00;;;;;;;14.47;8.07;;;;;;;18.64;85.08;99839.44;5071315;28;20199;-65
2022/06/19 01:10:28;;;;;;;9.13;8.33;;;;;;;18.66;84.70;99852.44;5070927;28;20188;-65
2022/06/19 01:12:58;;;;;;;8.47;7.67;;;;;;;18.62;84.87;99854.19;5070711;28;20191;-66
2022/06/19 01:15:26;;;;;;;8.60;7.43;;;;;;;18.61;84.95;99855.09;5071116;28;20628;-67
2022/06/19 01:17:57;;;;;;;8.40;7.57;;;;;;;18.65;84.80;99855.94;5070640;28;20669;-66
2022/06/19 01:20:24;;;;;;;9.17;7.53;;;;;;;18.67;84.61;99848.97;5071017;28;20275;-65
2022/06/19 01:23:01;;;;;;;8.37;7.57;;;;;;;18.66;84.61;99858.50;5070876;28;20357;-66
2022/06/19 01:25:32;;;;;;;8.10;7.33;;;;;;;18.69;84.49;99863.69;5070615;28;20199;-65
2022/06/19 01:30:49;;;;;;;12.57;7.83;;;;;;;18.66;85.03;99861.09;5070661;28;20194;-65
2022/06/19 01:33:27;;;;;;;11.10;8.03;;;;;;;18.60;85.27;99855.09;5070701;28;20194;-66
2022/06/19 01:35:56;;;;;;;8.60;7.80;;;;;;;18.56;85.30;99862.09;5070484;28;20201;-66
2022/06/19 01:38:25;;;;;;;8.70;7.77;;;;;;;18.48;85.07;99853.50;5070554;28;20204;-66
2022/06/19 01:40:58;;;;;;;9.83;8.87;;;;;;;18.47;85.26;99854.34;5070400;28;20188;-66
2022/06/19 01:43:25;;;;;;;9.33;8.33;;;;;;;18.51;85.42;99863.00;5070457;28;20223;-66
2022/06/19 01:45:55;;;;;;;9.20;8.30;;;;;;;18.50;85.56;99858.69;5070440;28;20199;-67
2022/06/19 01:48:23;;;;;;;13.23;8.77;;;;;;;18.61;85.46;99869.84;5070187;28;20630;-66
2022/06/19 01:50:53;;;;;;;9.32;8.02;;;;;;;18.65;85.60;99866.34;5070335;28;20440;-66
2022/06/19 01:53:23;;;;;;;12.00;8.97;;;;;;;18.62;85.38;99867.22;5070671;28;20206;-66
2022/06/19 01:55:51;;;;;;;9.10;8.20;;;;;;;18.72;85.20;99868.00;5070392;28;20199;-66
2022/06/19 01:58:23;;;;;;;8.03;7.33;;;;;;;18.69;84.97;99870.63;5070276;28;20195;-66
2022/06/19 02:00:50;;;;;;;8.70;7.90;;;;;;;18.65;85.01;99871.56;5070128;28;20196;-66
2022/06/19 02:03:24;;;;;;;9.00;7.57;;;;;;;18.50;85.23;99848.28;5070127;28;20666;-66
2022/06/19 02:05:51;;;;;;;9.77;8.10;;;;;;;18.65;84.89;99872.38;5070183;28;20198;-66
2022/06/19 02:08:19;;;;;;;9.07;8.17;;;;;;;18.66;85.07;99875.84;5070115;28;20198;-66
2022/06/19 02:10:48;;;;;;;10.37;8.10;;;;;;;18.66;85.29;99875.84;5070237;28;20195;-66
2022/06/19 02:13:18;;;;;;;10.60;9.20;;;;;;;18.65;85.57;99868.94;5070082;28;20193;-66
2022/06/19 02:15:48;;;;;;;15.10;8.40;;;;;;;18.64;85.36;99878.50;5070020;28;20615;-66
2022/06/19 02:18:21;;;;;;;11.90;9.20;;;;;;;18.57;85.43;99871.59;5070198;28;20218;-67
2022/06/19 02:20:50;;;;;;;9.93;8.87;;;;;;;18.54;85.50;99870.78;5070000;28;20196;-65
2022/06/19 02:23:20;;;;;;;10.57;9.57;;;;;;;18.50;85.69;99872.56;5070150;28;20295;-66
2022/06/19 02:25:49;;;;;;;9.83;8.87;;;;;;;18.42;86.19;99874.34;5070818;28;20191;-66
2022/06/19 02:28:17;;;;;;;10.40;9.07;;;;;;;18.45;85.83;99871.72;5074140;28;20205;-66
2022/06/19 02:30:44;;;;;;;9.73;8.83;;;;;;;18.39;85.80;99876.09;5074355;28;20227;-66
2022/06/19 02:33:16;;;;;;;11.37;9.87;;;;;;;18.42;85.72;99881.28;5074212;28;20203;-66
2022/06/19 02:35:43;;;;;;;16.55;10.48;;;;;;;18.42;85.89;99883.88;5073604;28;20445;-66
2022/06/19 02:38:17;;;;;;;9.70;8.80;;;;;;;18.42;85.89;99887.34;5074034;28;20200;-66
2022/06/19 02:40:54;;;;;;;12.00;10.17;;;;;;;18.38;85.85;99885.63;5073842;28;20195;-66
2022/06/19 02:43:25;;;;;;;10.83;9.17;;;;;;;18.25;86.03;99863.22;5074131;28;20287;-66
2022/06/19 02:45:52;;;;;;;12.07;8.80;;;;;;;18.40;85.83;99883.03;5073876;28;20194;-66
2022/06/19 02:48:23;;;;;;;10.53;8.53;;;;;;;18.37;85.81;99886.53;5073763;28;20195;-66
2022/06/19 02:50:51;;;;;;;13.33;8.87;;;;;;;18.37;85.83;99885.66;5073745;28;20188;-66
2022/06/19 02:53:18;;;;;;;11.23;9.03;;;;;;;18.39;85.72;99883.91;5073581;28;20197;-66
2022/06/19 02:55:45;;;;;;;11.50;9.43;;;;;;;18.39;85.75;99874.38;5073826;28;20191;-66
2022/06/19 02:58:12;;;;;;;13.23;11.45;;;;;;;18.28;85.76;99874.47;5073135;28;20445;-66
2022/06/19 03:00:40;;;;;;;14.57;10.63;;;;;;;18.37;85.78;99873.53;5073494;28;20198;-66
2022/06/19 03:03:13;;;;;;;10.63;9.60;;;;;;;18.62;84.99;99879.38;5073448;28;20221;-66
2022/06/19 03:05:41;;;;;;;14.43;9.87;;;;;;;19.00;83.16;99874.63;5073325;28;20194;-65
2022/06/19 03:08:08;;;;;;;14.00;9.50;;;;;;;19.41;81.49;99882.81;5073283;28;20196;-65
2022/06/19 03:10:35;;;;;;;11.27;8.23;;;;;;;19.74;79.25;99878.88;5073035;28;20215;-65
2022/06/19 03:13:02;;;;;;;14.43;8.13;;;;;;;19.94;77.66;99876.81;5073178;28;20206;-65
2022/06/19 03:15:29;;;;;;;9.27;8.00;;;;;;;20.06;77.15;99880.13;5073223;28;20270;-66
2022/06/19 03:17:56;;;;;;;9.70;8.30;;;;;;;19.84;77.30;99884.81;5073105;28;20191;-66
2022/06/19 03:20:25;;;;;;;11.07;8.70;;;;;;;19.71;77.82;99878.06;5072926;28;20192;-66
2022/06/19 03:22:54;;;;;;;12.30;8.23;;;;;;;19.57;78.30;99873.03;5073031;28;20716;-66
2022/06/19 03:25:22;;;;;;;8.60;7.87;;;;;;;19.51;78.61;99880.94;5073408;28;20288;-66
2022/06/19 03:27:49;;;;;;;9.63;8.20;;;;;;;19.52;78.84;99881.81;5073223;28;21040;-66
2022/06/19 03:30:18;;;;;;;9.37;8.40;;;;;;;19.59;78.88;99886.03;5072999;28;20826;-66
2022/06/19 03:32:45;;;;;;;11.93;7.93;;;;;;;19.67;78.46;99881.56;5072708;28;20198;-66
2022/06/19 03:35:11;;;;;;;11.90;7.63;;;;;;;19.72;77.92;99875.41;5073052;28;20206;-66
2022/06/19 03:37:39;;;;;;;10.53;7.63;;;;;;;19.79;77.57;99881.41;5072895;28;20747;-66
2022/06/19 03:40:09;;;;;;;9.90;7.87;;;;;;;19.79;77.34;99878.81;5072917;28;20194;-66
2022/06/19 03:42:36;;;;;;;8.20;7.23;;;;;;;19.80;77.01;99876.19;5072624;28;20196;-66
2022/06/19 03:45:03;;;;;;;8.57;7.70;;;;;;;19.82;76.69;99879.63;5072416;28;20192;-66
2022/06/19 03:47:30;;;;;;;9.20;7.57;;;;;;;19.87;76.50;99876.94;5072635;28;20554;-66
2022/06/19 03:49:57;;;;;;;9.23;7.13;;;;;;;19.80;76.25;99859.69;5072662;28;20265;-66
2022/06/19 03:52:24;;;;;;;7.93;7.13;;;;;;;20.00;75.72;99883.69;5072651;28;20198;-66
2022/06/19 03:54:50;;;;;;;9.40;7.03;;;;;;;19.84;75.08;99879.59;5072594;28;20199;-66
2022/06/19 03:57:19;;;;;;;7.83;7.23;;;;;;;19.73;75.62;99881.50;5072394;28;20199;-66
2022/06/19 03:59:45;;;;;;;8.37;7.50;;;;;;;19.67;76.31;99876.34;5072448;28;20195;-66
2022/06/19 04:02:12;;;;;;;9.70;7.53;;;;;;;19.55;76.86;99876.56;5072326;28;20199;-66
2022/06/19 04:04:40;;;;;;;7.50;6.90;;;;;;;19.41;77.12;99869.78;5072238;28;20191;-66
2022/06/19 04:07:07;;;;;;;8.45;7.75;;;;;;;19.50;77.61;99880.97;5071616;28;20479;-66
2022/06/19 04:09:34;;;;;;;7.97;7.30;;;;;;;19.55;77.28;99880.03;5072115;28;20219;-66
2022/06/19 04:12:01;;;;;;;8.20;7.50;;;;;;;19.47;77.59;99888.84;5071856;28;20290;-66
2022/06/19 04:14:30;;;;;;;8.10;7.30;;;;;;;19.50;77.69;99888.78;5072023;28;20194;-65
2022/06/19 04:16:56;;;;;;;8.33;7.53;;;;;;;19.48;77.80;99896.63;5071966;28;20203;-66
2022/06/19 04:19:23;;;;;;;12.80;8.00;;;;;;;19.60;77.84;99898.19;5071991;28;20199;-66
2022/06/19 04:21:50;;;;;;;9.60;8.03;;;;;;;19.64;77.46;99897.28;5071837;28;20258;-66
2022/06/19 04:24:19;;;;;;;8.27;7.47;;;;;;;19.67;77.33;99898.09;5071725;28;20696;-65
2022/06/19 04:26:45;;;;;;;8.73;7.83;;;;;;;19.51;77.43;99898.31;5071797;28;20203;-66
2022/06/19 04:29:13;;;;;;;9.60;7.63;;;;;;;19.50;77.60;99904.44;5071668;28;20190;-66
2022/06/19 04:31:41;;;;;;;15.67;8.17;;;;;;;19.34;78.65;99895.91;5072045;28;20191;-65
2022/06/19 04:34:09;;;;;;;9.03;8.23;;;;;;;19.19;78.83;99868.31;5071702;28;20191;-67
2022/06/19 04:36:36;;;;;;;9.67;8.73;;;;;;;19.40;78.80;99901.94;5071738;28;20190;-66
2022/06/19 04:39:04;;;;;;;13.97;8.67;;;;;;;19.33;79.25;99891.59;5071566;28;20669;-66
2022/06/19 04:41:32;;;;;;;9.90;8.93;;;;;;;19.45;79.04;99908.84;5071585;28;20555;-66
2022/06/19 04:44:00;;;;;;;9.40;8.47;;;;;;;19.46;78.99;99894.91;5071406;28;20237;-66
2022/06/19 04:46:27;;;;;;;8.93;8.23;;;;;;;19.47;78.96;99891.44;5071469;28;20199;-67
2022/06/19 04:48:57;;;;;;;10.47;8.17;;;;;;;19.60;78.96;99893.00;5070863;28;20187;-66
2022/06/19 04:51:24;;;;;;;10.55;9.50;;;;;;;19.64;78.76;99892.91;5071067;28;20457;-66
2022/06/19 04:53:53;;;;;;;10.03;9.00;;;;;;;19.75;78.69;99896.22;5071294;28;20214;-66
2022/06/19 04:56:20;;;;;;;10.53;9.53;;;;;;;19.86;78.46;99898.72;5070954;28;20195;-66
2022/06/19 04:58:48;;;;;;;9.13;8.40;;;;;;;20.07;77.75;99898.38;5071294;28;20283;-66
2022/06/19 05:01:20;;;;;;;10.03;9.13;;;;;;;20.23;77.20;99893.75;5071017;28;20191;-66
2022/06/19 05:03:47;;;;;;;9.23;8.33;;;;;;;20.34;76.46;99900.56;5071139;28;20199;-66
2022/06/19 05:06:16;;;;;;;9.87;8.87;;;;;;;20.47;75.74;99906.41;5070952;28;20555;-67
2022/06/19 05:08:42;;;;;;;15.50;9.60;;;;;;;20.57;75.81;99913.22;5070872;28;20203;-66
2022/06/19 05:11:09;;;;;;;9.20;8.50;;;;;;;20.64;75.13;99909.59;5070764;28;20229;-66
2022/06/19 05:13:37;;;;;;;10.77;9.70;;;;;;;20.69;75.08;99910.38;5070667;28;20990;-66
2022/06/19 05:16:06;;;;;;;10.50;8.87;;;;;;;20.69;75.25;99909.50;5070820;28;20202;-66
2022/06/19 05:18:34;;;;;;;9.20;8.40;;;;;;;20.69;74.84;99912.13;5070707;28;20222;-66
2022/06/19 05:21:04;;;;;;;8.33;7.63;;;;;;;20.89;74.56;99917.84;5070617;28;20195;-66
2022/06/19 05:23:33;;;;;;;9.53;8.10;;;;;;;21.00;73.80;99905.44;5070891;28;20187;-66
2022/06/19 05:26:02;;;;;;;8.67;7.80;;;;;;;21.12;72.08;99913.09;5070686;28;20187;-66
2022/06/19 05:28:30;;;;;;;8.30;7.50;;;;;;;21.12;72.06;99910.47;5070746;28;20191;-66
2022/06/19 05:30:58;;;;;;;8.27;7.10;;;;;;;21.19;72.38;99917.28;5070516;28;20296;-65
2022/06/19 05:33:25;;;;;;;8.30;7.60;;;;;;;21.30;71.96;99915.31;5070098;28;20188;-66
2022/06/19 05:35:52;;;;;;;9.03;7.80;;;;;;;21.37;70.87;99911.69;5070647;28;20199;-65
2022/06/19 05:38:19;;;;;;;12.17;7.70;;;;;;;21.40;70.84;99916.00;5070640;28;20196;-65
2022/06/19 05:40:51;;;;;;;7.60;7.00;;;;;;;21.45;71.03;99911.53;5070203;28;20505;-65
2022/06/19 05:43:18;;;;;;;8.40;7.60;;;;;;;21.50;71.01;99915.78;5069937;28;20307;-65
2022/06/19 05:45:50;;;;;;;8.37;7.57;;;;;;;21.58;71.01;99918.22;5070254;28;20195;-66
2022/06/19 05:48:17;;;;;;;7.10;6.60;;;;;;;21.61;70.44;99912.94;5070245;28;20187;-67
2022/06/19 05:50:44;;;;;;;7.80;7.20;;;;;;;21.75;70.84;99913.50;5070324;28;20219;-67
2022/06/19 05:53:11;;;;;;;7.70;7.00;;;;;;;21.89;70.93;99916.69;5069765;28;20191;-66
2022/06/19 05:55:38;;;;;;;7.97;7.23;;;;;;;21.99;70.67;99915.56;5069768;28;20678;-66
2022/06/19 05:58:06;;;;;;;10.93;7.73;;;;;;;22.15;69.97;99918.69;5069915;28;20195;-66
2022/06/19 06:00:33;;;;;;;9.85;7.70;;;;;;;22.27;69.32;99916.66;5067780;28;20963;-65
2022/06/19 06:03:00;;;;;;;11.30;7.60;;;;;;;22.36;67.99;99927.78;5070146;28;20617;-66
2022/06/19 06:05:27;;;;;;;8.30;7.50;;;;;;;22.37;67.07;99919.03;5070056;28;20249;-66
2022/06/19 06:07:54;;;;;;;7.93;7.20;;;;;;;22.41;66.67;99921.53;5069958;28;20192;-66
2022/06/19 06:10:21;;;;;;;8.53;6.17;;;;;;;22.52;66.63;99919.53;5069739;28;20214;-65
2022/06/19 06:12:48;;;;;;;8.00;6.87;;;;;;;22.48;65.39;99917.84;5069759;28;20254;-66
2022/06/19 06:15:16;;;;;;;6.93;6.33;;;;;;;22.54;65.28;99917.72;5069716;28;20238;-66
2022/06/19 06:17:43;;;;;;;7.40;6.80;;;;;;;22.51;65.89;99911.69;5069873;28;20659;-66
2022/06/19 06:20:10;;;;;;;7.53;6.63;;;;;;;22.63;66.09;99916.63;5069742;28;20191;-66
2022/06/19 06:22:37;;;;;;;7.97;7.20;;;;;;;22.77;65.75;99917.16;5068724;28;20449;-66
2022/06/19 06:25:06;;;;;;;6.63;6.10;;;;;;;22.94;64.43;99914.91;5069622;28;20230;-66
2022/06/19 06:27:32;;;;;;;7.43;6.70;;;;;;;23.00;64.24;99906.03;5069702;28;20202;-66
2022/06/19 06:29:59;;;;;;;7.07;6.57;;;;;;;23.05;63.53;99904.13;5069575;28;20226;-66
2022/06/19 06:32:27;;;;;;;7.60;6.93;;;;;;;23.13;63.13;99907.44;5069795;28;20669;-66
2022/06/19 06:34:54;;;;;;;7.77;7.00;;;;;;;23.17;63.18;99904.66;5069798;28;20191;-66
2022/06/19 06:37:21;;;;;;;8.87;6.53;;;;;;;23.10;62.75;99897.03;5069786;28;20188;-66
2022/06/19 06:39:48;;;;;;;6.53;5.93;;;;;;;23.02;62.05;99899.00;5069523;28;20199;-66
2022/06/19 06:42:15;;;;;;;6.87;6.17;;;;;;;23.05;63.17;99898.88;5069532;28;20191;-66
2022/06/19 06:44:42;;;;;;;8.77;6.37;;;;;;;23.16;61.38;99902.06;5069546;28;20305;-66
2022/06/19 06:47:09;;;;;;;8.27;6.37;;;;;;;23.24;60.77;99900.13;5069828;28;20198;-66
2022/06/19 06:49:37;;;;;;;6.43;5.83;;;;;;;23.31;60.77;99896.41;5069448;28;20198;-66
2022/06/19 06:52:07;;;;;;;6.70;6.10;;;;;;;23.36;61.45;99900.63;5069476;28;20246;-66
2022/06/19 06:54:36;;;;;;;7.07;6.40;;;;;;;23.47;60.62;99895.94;5069648;28;20633;-66
2022/06/19 06:57:03;;;;;;;7.00;6.50;;;;;;;23.60;60.67;99900.81;5069551;28;20202;-65
2022/06/19 06:59:29;;;;;;;8.93;5.87;;;;;;;23.63;59.64;99900.72;5069407;28;20179;-65
2022/06/19 07:01:56;;;;;;;6.13;5.63;;;;;;;23.64;59.17;99900.69;5068884;28;20188;-66
2022/06/19 07:04:23;;;;;;;5.57;5.00;;;;;;;23.78;59.19;99903.75;5069219;28;20215;-66
2022/06/19 07:06:51;;;;;;;7.03;6.43;;;;;;;23.84;59.65;99900.09;5069217;28;20496;-66
2022/06/19 07:09:18;;;;;;;6.47;5.83;;;;;;;23.94;59.51;99901.50;5068932;28;20192;-65
2022/06/19 07:11:46;;;;;;;6.30;5.70;;;;;;;24.08;58.97;99901.94;5069678;28;20310;-66
2022/06/19 07:14:15;;;;;;;5.70;5.13;;;;;;;24.16;58.59;99902.56;5072774;28;20305;-66
2022/06/19 07:16:42;;;;;;;7.50;6.87;;;;;;;24.24;57.64;99903.19;5072787;28;20279;-66
2022/06/19 07:19:09;;;;;;;7.80;6.07;;;;;;;24.30;57.54;99894.22;5072262;28;20188;-65
2022/06/19 07:21:37;;;;;;;7.43;6.43;;;;;;;24.42;56.91;99896.47;5072665;28;20191;-66
2022/06/19 07:24:06;;;;;;;7.37;6.23;;;;;;;24.49;56.35;99901.44;5072650;28;20745;-66
2022/06/19 07:26:33;;;;;;;6.10;5.50;;;;;;;24.44;54.11;99889.38;5072676;28;20198;-66
2022/06/19 07:29:00;;;;;;;5.82;5.32;;;;;;;24.51;52.73;99896.13;5072271;28;20440;-66
2022/06/19 07:31:27;;;;;;;5.30;4.90;;;;;;;24.61;51.51;99895.75;5072219;28;20215;-66
2022/06/19 07:33:54;;;;;;;5.17;4.37;;;;;;;24.65;49.81;99899.16;5072136;28;20740;-66
2022/06/19 07:36:23;;;;;;;4.43;4.03;;;;;;;24.65;49.13;99902.63;5071706;28;20188;-66
2022/06/19 07:38:50;;;;;;;4.23;3.87;;;;;;;24.73;49.74;99889.22;5072266;28;20191;-65
2022/06/19 07:41:19;;;;;;;5.00;4.60;;;;;;;24.88;49.87;99885.25;5072063;28;20191;-66
2022/06/19 07:43:45;;;;;;;5.60;5.10;;;;;;;25.00;50.06;99885.66;5071752;28;20227;-66
2022/06/19 07:46:12;;;;;;;6.97;6.27;;;;;;;25.09;48.83;99892.34;5071733;28;20196;-66
2022/06/19 07:51:26;;;;;;;6.73;6.07;;;;;;;25.32;47.79;99894.13;5071604;28;20218;-67
2022/06/19 07:53:52;;;;;;;3.70;3.27;;;;;;;25.12;42.86;99893.09;5071811;28;20188;-66
2022/06/19 07:56:21;;;;;;;3.50;3.20;;;;;;;25.10;42.97;99888.81;5071897;28;20192;-66
2022/06/19 07:58:48;;;;;;;4.03;3.40;;;;;;;25.13;43.79;99883.44;5071718;28;20282;-66
2022/06/19 08:01:15;;;;;;;3.03;2.70;;;;;;;24.99;42.33;99888.34;5071381;28;20200;-66
2022/06/19 08:03:42;;;;;;;4.13;2.90;;;;;;;25.04;42.08;99887.25;5071502;28;20650;-66
2022/06/19 08:06:09;;;;;;;3.40;3.10;;;;;;;25.21;42.47;99891.91;5071825;28;20504;-66
2022/06/19 08:08:36;;;;;;;3.97;3.20;;;;;;;25.29;42.99;99881.09;5071760;28;20188;-66
2022/06/19 08:11:04;;;;;;;3.90;3.60;;;;;;;25.44;42.48;99886.63;5071627;28;20219;-66
2022/06/19 08:13:35;;;;;;;4.13;3.72;;;;;;;25.58;43.68;99884.38;5071312;28;20773;-66
2022/06/19 08:16:03;;;;;;;3.33;3.13;;;;;;;25.49;41.69;99887.34;5071648;28;20187;-66
2022/06/19 08:18:31;;;;;;;4.03;3.40;;;;;;;25.45;40.58;99892.75;5071426;28;20195;-67
2022/06/19 08:20:58;;;;;;;2.87;2.60;;;;;;;25.29;40.27;99889.84;5071250;28;20666;-65
2022/06/19 08:23:25;;;;;;;3.13;2.93;;;;;;;25.48;40.35;99882.16;5070229;28;20188;-66
2022/06/19 08:25:52;;;;;;;3.57;3.27;;;;;;;25.60;40.95;99887.78;5071046;28;20561;-66
2022/06/19 08:28:22;;;;;;;3.50;3.03;;;;;;;25.61;40.13;99878.13;5071121;28;20195;-66
2022/06/19 08:30:50;;;;;;;3.33;3.03;;;;;;;25.73;40.08;99875.88;5070966;28;20222;-66
2022/06/19 08:33:17;;;;;;;3.10;2.80;;;;;;;25.80;39.60;99871.22;5071076;28;20187;-66
2022/06/19 08:35:46;;;;;;;3.50;3.20;;;;;;;25.72;40.22;99875.94;5070609;28;20433;-66
2022/06/19 08:38:16;;;;;;;3.53;3.23;;;;;;;25.79;39.98;99875.63;5071047;28;20286;-66
2022/06/19 08:41:03;;;;;;;4.67;4.27;;;;;;;25.89;40.50;99870.00;5070735;28;20509;-66
2022/06/19 08:43:47;;;;;;;3.80;3.50;;;;;;;25.92;39.74;99872.50;5071497;28;20368;-66
2022/06/19 08:46:26;;;;;;;3.97;3.40;;;;;;;26.01;40.23;99866.88;5070860;28;20743;-66
2022/06/19 08:49:22;;;;;;;3.67;3.37;;;;;;;26.24;40.02;99859.75;5071196;28;20719;-66
2022/06/19 08:52:01;;;;;;;13.77;10.70;;;;;;;26.46;39.33;99858.84;5068266;28;20211;-66
2022/06/19 08:54:45;;;;;;;6.30;5.10;;;;;;;26.36;39.37;99851.34;5070567;28;20511;-66
2022/06/19 08:57:20;;;;;;;7.00;3.20;;;;;;;26.41;38.67;99853.78;5070325;28;20666;-66
2022/06/19 08:59:55;;;;;;;5.70;2.77;;;;;;;26.42;38.84;99852.00;5070545;28;20191;-66
2022/06/19 09:02:35;;;;;;;5.53;5.00;;;;;;;26.39;39.46;99850.38;5070827;28;20186;-66
2022/06/19 09:08:12;;;;;;;5.10;2.77;;;;;;;26.05;38.89;99856.16;5070459;28;20329;-66
2022/06/19 09:10:47;;;;;;;6.07;2.83;;;;;;;25.90;39.29;99853.28;5070348;28;20199;-66
2022/06/19 09:13:33;;;;;;;3.60;3.17;;;;;;;25.89;39.04;99851.56;5070237;28;20202;-66
2022/06/19 09:16:02;;;;;;;5.37;3.17;;;;;;;26.12;39.17;99843.59;5070177;28;20198;-66
2022/06/19 09:18:39;;;;;;;3.13;2.93;;;;;;;26.31;38.51;99842.78;5070092;28;20206;-66
2022/06/19 09:21:11;;;;;;;3.03;2.72;;;;;;;26.40;37.82;99836.25;5069362;28;20430;-66
2022/06/19 09:23:59;;;;;;;3.20;2.37;;;;;;;26.68;37.73;99844.69;5069914;28;20625;-66
2022/06/19 09:26:31;;;;;;;3.85;2.80;;;;;;;26.81;37.38;99831.88;5070302;28;20200;-67
2022/06/19 09:29:06;;;;;;;4.47;3.25;;;;;;;26.60;39.20;99840.66;5070121;28;20192;-66
2022/06/19 09:31:38;;;;;;;3.03;2.70;;;;;;;26.25;38.67;99837.78;5069826;28;20219;-66
2022/06/19 09:34:12;;;;;;;4.73;3.10;;;;;;;26.26;38.82;99838.63;5070195;28;20191;-67
2022/06/19 09:36:45;;;;;;;6.97;5.10;;;;;;;26.42;38.98;99841.47;5070098;28;20198;-66
2022/06/19 09:39:19;;;;;;;5.03;4.33;;;;;;;26.57;39.27;99835.53;5070101;28;20678;-66
2022/06/19 09:41:51;;;;;;;3.22;2.95;;;;;;;26.56;38.01;99842.59;5070046;28;20218;-66
2022/06/19 09:44:26;;;;;;;3.20;3.00;;;;;;;26.54;38.20;99843.56;5068624;28;20502;-67
2022/06/19 09:46:59;;;;;;;3.28;3.08;;;;;;;26.73;38.71;99837.41;5070147;28;20194;-66
2022/06/19 09:49:33;;;;;;;3.30;3.00;;;;;;;27.10;38.31;99835.81;5069368;28;20191;-66
2022/06/19 09:52:07;;;;;;;3.42;3.08;;;;;;;27.47;37.69;99834.06;5069443;28;20219;-66
2022/06/19 09:54:41;;;;;;;3.22;2.70;;;;;;;27.67;36.97;99827.81;5069742;28;20564;-66
2022/06/19 09:57:12;;;;;;;3.28;2.70;;;;;;;27.68;37.50;99832.19;5069537;28;20214;-66
2022/06/19 09:59:49;;;;;;;3.20;3.00;;;;;;;27.60;38.26;99831.69;5069372;28;20192;-66
2022/06/19 10:02:23;;;;;;;4.35;3.20;;;;;;;27.68;37.19;99826.03;5069281;28;20202;-66
2022/06/19 10:04:59;;;;;;;3.75;3.45;;;;;;;27.87;37.48;99818.94;5069567;28;20582;-66
2022/06/19 10:07:32;;;;;;;2.72;2.53;;;;;;;27.86;36.37;99818.06;5069682;28;20240;-66
2022/06/19 10:10:02;;;;;;;2.80;2.60;;;;;;;28.05;36.88;99815.41;5069808;28;20200;-66
2022/06/19 10:12:35;;;;;;;3.38;2.67;;;;;;;28.20;36.75;99821.72;5069289;28;20229;-66
2022/06/19 10:15:06;;;;;;;6.78;5.78;;;;;;;28.33;36.24;99822.78;5069064;28;20191;-65
2022/06/19 10:17:43;;;;;;;3.78;3.30;;;;;;;28.58;36.02;99802.94;5069412;28;20192;-65
2022/06/19 10:20:16;;;;;;;2.75;2.55;;;;;;;28.62;34.29;99791.28;5069167;28;20191;-66
2022/06/19 10:22:59;;;;;;;3.53;2.67;;;;;;;28.92;34.53;99803.84;5069060;28;20192;-65
2022/06/19 10:25:46;;;;;;;3.17;2.97;;;;;;;29.07;34.85;99793.28;5069105;28;20199;-65
2022/06/19 10:29:07;;;;;;;5.60;4.95;;;;;;;29.15;34.59;99800.78;5068857;28;20441;-66
2022/06/19 10:31:47;;;;;;;3.45;2.60;;;;;;;29.25;33.76;99796.75;5017691;28;20219;-66
2022/06/19 10:34:35;;;;;;;4.22;3.00;;;;;;;29.36;33.10;99798.78;5069346;28;20191;-66
2022/06/19 10:37:14;;;;;;;3.92;3.20;;;;;;;29.56;32.76;99791.41;5069507;28;20191;-66
2022/06/19 10:39:57;;;;;;;6.18;3.40;;;;;;;29.64;33.42;99791.84;5068823;28;20544;-66
2022/06/19 10:42:33;;;;;;;5.57;3.90;;;;;;;29.68;33.24;99784.59;5069437;28;20191;-66
2022/06/19 10:45:20;;;;;;;3.72;2.85;;;;;;;29.31;33.46;99777.84;5068657;28;20736;-66
2022/06/19 10:48:13;;;;;;;8.80;4.18;;;;;;;29.17;33.19;99775.94;5071757;28;20195;-66
2022/06/19 10:50:48;;;;;;;5.35;4.95;;;;;;;28.99;35.11;99778.75;5073193;28;20530;-66
2022/06/19 10:53:31;;;;;;;3.35;3.08;;;;;;;28.90;33.98;99771.34;5073038;28;20820;-66
2022/06/19 10:56:08;;;;;;;4.07;3.67;;;;;;;28.78;33.73;99767.56;5073102;28;20638;-66
2022/06/19 10:58:36;;;;;;;3.40;3.10;;;;;;;28.42;33.66;99767.69;5072734;28;20199;-66
2022/06/19 11:01:05;;;;;;;2.47;2.28;;;;;;;28.14;33.50;99767.38;5073642;28;20184;-66
2022/06/19 11:06:23;;;;;;;2.70;2.50;;;;;;;27.89;34.77;99769.53;5073196;28;20201;-66
2022/06/19 11:08:57;;;;;;;4.47;2.63;;;;;;;27.48;35.22;99763.63;5072915;28;20667;-66
2022/06/19 11:11:25;;;;;;;3.95;2.60;;;;;;;27.23;35.27;99768.34;5072628;28;20215;-66
2022/06/19 11:14:12;;;;;;;2.38;2.17;;;;;;;27.07;35.39;99762.94;5072886;28;20712;-67
2022/06/19 11:16:56;;;;;;;2.45;2.25;;;;;;;27.38;34.59;99750.00;5072738;28;20191;-66
2022/06/19 11:19:40;;;;;;;2.75;2.55;;;;;;;27.82;34.09;99758.44;5072890;28;20195;-66
2022/06/19 11:22:20;;;;;;;2.55;2.35;;;;;;;27.59;35.06;99702.38;5072459;28;20328;-66
2022/06/19 11:24:48;;;;;;;3.13;2.60;;;;;;;27.79;35.40;99753.28;5072207;28;20207;-66
2022/06/19 11:27:19;;;;;;;2.65;2.45;;;;;;;27.78;35.45;99753.34;5072601;28;20191;-66
2022/06/19 11:29:49;;;;;;;3.80;2.60;;;;;;;27.98;33.07;99743.50;5072614;28;20199;-65
2022/06/19 11:32:19;;;;;;;3.58;2.33;;;;;;;27.91;33.22;99750.03;5072203;28;20212;-66
2022/06/19 11:34:57;;;;;;;2.58;2.38;;;;;;;28.00;33.71;99746.91;5072207;28;20191;-65
2022/06/19 11:37:28;;;;;;;3.00;2.70;;;;;;;28.14;34.50;99748.88;5072126;28;20196;-64
2022/06/19 11:40:12;;;;;;;3.00;2.80;;;;;;;28.43;33.43;99745.56;5072260;28;20195;-66
2022/06/19 11:42:46;;;;;;;4.75;3.25;;;;;;;28.86;33.95;99748.59;5072075;28;20589;-66
2022/06/19 11:45:26;;;;;;;5.22;2.58;;;;;;;29.18;32.64;99734.44;5071960;28;20658;-65
2022/06/19 11:48:02;;;;;;;2.97;2.78;;;;;;;29.35;32.21;99699.13;5072081;28;20195;-65
2022/06/19 11:50:40;;;;;;;3.63;2.58;;;;;;;29.75;31.44;99751.47;5071868;28;20187;-66
2022/06/19 11:53:15;;;;;;;3.70;2.83;;;;;;;29.55;32.50;99733.25;5071828;28;20215;-66
2022/06/19 11:55:46;;;;;;;3.10;2.80;;;;;;;29.60;30.15;99733.84;5072066;28;20201;-66
2022/06/19 11:58:22;;;;;;;3.03;2.20;;;;;;;29.58;29.97;99733.94;5070811;28;20199;-66